Gautier, MS

4:40 PM CST on February 10, 2016 (GMT -0600)
Seacliff | | Change Station
CLOSE
Current Station
Personal Weather Station
Location: Gautier, MS
Elevation: 30 ft
Nearby Weather Stations

Elev 30 ft 30.36 °N, 88.64 °W | Updated 34 seconds ago

Clear
Clear
51.8 °F
Feels Like 51.8 °F
N
3.2
Wind Variable Wind from NE

Today
High -- | Low -- °F
--% Chance of Precip.
Yesterday
High -- | Low -- °F
Precip. -- in
Pressure 30.27 in
Visibility 10.0 miles
Clouds Clear
Dew Point 36 °F
Humidity 55%
Rainfall 0.00 in
Snow Depth Not available.
6:39 AM 5:38 PM
Waxing Crescent, 7% visible
METAR KPQL 102153Z 24006KT 10SM CLR 11/M02 A3027 RMK AO2 SLP251 T01111017
Pressure 30.27 in
Visibility 10.0 miles
Clouds Clear
Dew Point 36 °F
Humidity 55%
Rainfall 0.00 in
Snow Depth Not available.
6:39 AM 5:38 PM
Waxing Crescent, 7% visible
METAR KPQL 102153Z 24006KT 10SM CLR 11/M02 A3027 RMK AO2 SLP251 T01111017

10-Day Weather Forecast

Almanac

Astronomy

Feb. 10, 2016 Rise Set
Actual Time
Civil Twilight
Nautical Twilight
Astronomical Twilight
Moon
Length of Visible Light
Length of Day
Tomorrow will be .
, % of the Moon is Illuminated

Today's Extremes

State Highs State Lows

Community

WunderPhotos

Upload Photos

1,891,944 photos uploaded!

WunderBlog® & News

Nearby

Air Quality

  Air Quality AQ Index Pollutant
Not available.

Snow Depth

Station Depth Elevation

Earthquake Activity

City Distance Mag. Time & Date
Minimum magnitude displayed is 2.5.

Coastal Water Temperatures

Place Temperature

Stations

Nearby Weather Stations

Station Location Temp. Windchill Dew Point Humidity Wind Precip. Elev Updated Type
                   

Watches & Warnings

There are currently no watches in effect.